sensor_id;sensor_type;location;lat;lon;timestamp;P1;durP1;ratioP1;P2;durP2;ratioP2
63320;SDS011;49449;48.800;9.534;2022-12-07T00:01:05;7.85;;;5.68;;
63320;SDS011;49449;48.800;9.534;2022-12-07T00:03:33;6.90;;;5.07;;
63320;SDS011;49449;48.800;9.534;2022-12-07T00:06:02;6.68;;;5.22;;
63320;SDS011;49449;48.800;9.534;2022-12-07T00:08:31;6.55;;;5.15;;
63320;SDS011;49449;48.800;9.534;2022-12-07T00:11:00;7.85;;;5.43;;
63320;SDS011;49449;48.800;9.534;2022-12-07T00:13:29;7.20;;;5.28;;
63320;SDS011;49449;48.800;9.534;2022-12-07T00:15:59;6.00;;;4.47;;
63320;SDS011;49449;48.800;9.534;2022-12-07T00:18:29;6.15;;;4.97;;
63320;SDS011;49449;48.800;9.534;2022-12-07T00:21:00;6.00;;;4.43;;
63320;SDS011;49449;48.800;9.534;2022-12-07T00:23:29;5.90;;;4.53;;
63320;SDS011;49449;48.800;9.534;2022-12-07T00:26:02;6.18;;;4.88;;
63320;SDS011;49449;48.800;9.534;2022-12-07T00:28:31;6.13;;;5.00;;
63320;SDS011;49449;48.800;9.534;2022-12-07T00:31:00;6.65;;;4.72;;
63320;SDS011;49449;48.800;9.534;2022-12-07T00:33:31;5.82;;;5.00;;
63320;SDS011;49449;48.800;9.534;2022-12-07T00:36:00;5.80;;;5.22;;
63320;SDS011;49449;48.800;9.534;2022-12-07T00:38:29;5.78;;;4.97;;
63320;SDS011;49449;48.800;9.534;2022-12-07T00:40:59;6.10;;;4.82;;
63320;SDS011;49449;48.800;9.534;2022-12-07T00:43:28;6.25;;;4.78;;
63320;SDS011;49449;48.800;9.534;2022-12-07T00:45:56;6.25;;;5.40;;
63320;SDS011;49449;48.800;9.534;2022-12-07T00:48:24;7.18;;;5.32;;
63320;SDS011;49449;48.800;9.534;2022-12-07T00:50:53;6.18;;;5.22;;
63320;SDS011;49449;48.800;9.534;2022-12-07T00:53:21;7.32;;;5.55;;
63320;SDS011;49449;48.800;9.534;2022-12-07T00:55:49;5.95;;;4.82;;
63320;SDS011;49449;48.800;9.534;2022-12-07T00:58:18;6.22;;;5.55;;
63320;SDS011;49449;48.800;9.534;2022-12-07T01:00:46;7.38;;;5.35;;
63320;SDS011;49449;48.800;9.534;2022-12-07T01:03:15;6.18;;;4.75;;
63320;SDS011;49449;48.800;9.534;2022-12-07T01:05:48;7.65;;;4.90;;
63320;SDS011;49449;48.800;9.534;2022-12-07T01:08:18;6.38;;;4.68;;
63320;SDS011;49449;48.800;9.534;2022-12-07T01:10:46;6.72;;;5.70;;
63320;SDS011;49449;48.800;9.534;2022-12-07T01:13:14;7.40;;;5.55;;
63320;SDS011;49449;48.800;9.534;2022-12-07T01:15:43;7.03;;;5.32;;
63320;SDS011;49449;48.800;9.534;2022-12-07T01:18:11;6.75;;;4.80;;
63320;SDS011;49449;48.800;9.534;2022-12-07T01:20:39;5.88;;;4.63;;
63320;SDS011;49449;48.800;9.534;2022-12-07T01:23:07;6.30;;;4.30;;
63320;SDS011;49449;48.800;9.534;2022-12-07T01:25:36;5.75;;;5.10;;
63320;SDS011;49449;48.800;9.534;2022-12-07T01:28:04;7.93;;;6.15;;
63320;SDS011;49449;48.800;9.534;2022-12-07T01:30:31;6.30;;;5.18;;
63320;SDS011;49449;48.800;9.534;2022-12-07T01:32:59;7.40;;;6.05;;
63320;SDS011;49449;48.800;9.534;2022-12-07T01:35:27;7.68;;;5.82;;
63320;SDS011;49449;48.800;9.534;2022-12-07T01:37:54;5.95;;;4.80;;
63320;SDS011;49449;48.800;9.534;2022-12-07T01:40:22;7.28;;;5.28;;
63320;SDS011;49449;48.800;9.534;2022-12-07T01:42:51;8.30;;;5.80;;
63320;SDS011;49449;48.800;9.534;2022-12-07T01:48:05;6.55;;;5.30;;
63320;SDS011;49449;48.800;9.534;2022-12-07T01:50:34;6.43;;;5.03;;
63320;SDS011;49449;48.800;9.534;2022-12-07T01:53:04;6.50;;;5.43;;
63320;SDS011;49449;48.800;9.534;2022-12-07T01:55:37;7.30;;;5.55;;
63320;SDS011;49449;48.800;9.534;2022-12-07T01:58:08;7.60;;;5.57;;
63320;SDS011;49449;48.800;9.534;2022-12-07T02:00:38;6.10;;;5.03;;
63320;SDS011;49449;48.800;9.534;2022-12-07T02:03:07;8.25;;;5.85;;
63320;SDS011;49449;48.800;9.534;2022-12-07T02:05:38;6.47;;;5.30;;
63320;SDS011;49449;48.800;9.534;2022-12-07T02:08:08;7.50;;;5.30;;
63320;SDS011;49449;48.800;9.534;2022-12-07T02:10:39;8.45;;;5.63;;
63320;SDS011;49449;48.800;9.534;2022-12-07T02:13:09;6.88;;;5.32;;
63320;SDS011;49449;48.800;9.534;2022-12-07T02:15:44;6.60;;;5.15;;
63320;SDS011;49449;48.800;9.534;2022-12-07T02:18:20;7.68;;;6.28;;
63320;SDS011;49449;48.800;9.534;2022-12-07T02:20:54;5.72;;;4.72;;
63320;SDS011;49449;48.800;9.534;2022-12-07T02:23:31;7.50;;;6.07;;
63320;SDS011;49449;48.800;9.534;2022-12-07T02:29:07;7.80;;;6.15;;
63320;SDS011;49449;48.800;9.534;2022-12-07T02:31:43;7.82;;;5.97;;
63320;SDS011;49449;48.800;9.534;2022-12-07T02:34:15;7.00;;;5.35;;
63320;SDS011;49449;48.800;9.534;2022-12-07T02:36:51;7.30;;;6.05;;
63320;SDS011;49449;48.800;9.534;2022-12-07T02:39:25;8.20;;;6.28;;
63320;SDS011;49449;48.800;9.534;2022-12-07T02:42:00;6.90;;;5.63;;
63320;SDS011;49449;48.800;9.534;2022-12-07T02:44:32;6.20;;;5.20;;
63320;SDS011;49449;48.800;9.534;2022-12-07T02:47:02;7.07;;;5.40;;
63320;SDS011;49449;48.800;9.534;2022-12-07T02:49:33;7.65;;;5.90;;
63320;SDS011;49449;48.800;9.534;2022-12-07T02:52:02;7.25;;;5.72;;
63320;SDS011;49449;48.800;9.534;2022-12-07T02:54:30;6.90;;;5.65;;
63320;SDS011;49449;48.800;9.534;2022-12-07T02:57:00;9.15;;;6.50;;
63320;SDS011;49449;48.800;9.534;2022-12-07T02:59:41;8.77;;;5.82;;
63320;SDS011;49449;48.800;9.534;2022-12-07T03:02:22;9.38;;;6.85;;
63320;SDS011;49449;48.800;9.534;2022-12-07T03:04:59;7.90;;;6.00;;
63320;SDS011;49449;48.800;9.534;2022-12-07T03:07:39;7.90;;;6.00;;
63320;SDS011;49449;48.800;9.534;2022-12-07T03:10:17;9.98;;;6.20;;
63320;SDS011;49449;48.800;9.534;2022-12-07T03:12:52;7.93;;;5.45;;
63320;SDS011;49449;48.800;9.534;2022-12-07T03:15:31;7.97;;;5.55;;
63320;SDS011;49449;48.800;9.534;2022-12-07T03:18:03;6.68;;;5.13;;
63320;SDS011;49449;48.800;9.534;2022-12-07T03:20:32;8.05;;;5.90;;
63320;SDS011;49449;48.800;9.534;2022-12-07T03:23:03;8.35;;;5.53;;
63320;SDS011;49449;48.800;9.534;2022-12-07T03:25:34;8.02;;;5.57;;
63320;SDS011;49449;48.800;9.534;2022-12-07T03:28:06;7.70;;;5.80;;
63320;SDS011;49449;48.800;9.534;2022-12-07T03:30:38;9.00;;;5.95;;
63320;SDS011;49449;48.800;9.534;2022-12-07T03:33:13;7.75;;;5.28;;
63320;SDS011;49449;48.800;9.534;2022-12-07T03:35:47;7.72;;;5.38;;
63320;SDS011;49449;48.800;9.534;2022-12-07T03:38:25;9.90;;;5.38;;
63320;SDS011;49449;48.800;9.534;2022-12-07T03:40:58;7.05;;;5.70;;
63320;SDS011;49449;48.800;9.534;2022-12-07T03:43:29;8.02;;;5.72;;
63320;SDS011;49449;48.800;9.534;2022-12-07T03:46:01;7.95;;;5.78;;
63320;SDS011;49449;48.800;9.534;2022-12-07T03:48:40;8.32;;;6.25;;
63320;SDS011;49449;48.800;9.534;2022-12-07T03:51:14;8.63;;;5.75;;
63320;SDS011;49449;48.800;9.534;2022-12-07T03:53:48;7.68;;;5.90;;
63320;SDS011;49449;48.800;9.534;2022-12-07T03:56:19;7.38;;;5.30;;
63320;SDS011;49449;48.800;9.534;2022-12-07T03:58:48;6.80;;;5.30;;
63320;SDS011;49449;48.800;9.534;2022-12-07T04:01:18;7.70;;;6.32;;
63320;SDS011;49449;48.800;9.534;2022-12-07T04:03:46;7.75;;;6.43;;
63320;SDS011;49449;48.800;9.534;2022-12-07T04:06:14;9.52;;;6.88;;
63320;SDS011;49449;48.800;9.534;2022-12-07T04:08:42;8.60;;;6.38;;
63320;SDS011;49449;48.800;9.534;2022-12-07T04:11:09;9.35;;;6.88;;
63320;SDS011;49449;48.800;9.534;2022-12-07T04:13:37;10.07;;;6.97;;
63320;SDS011;49449;48.800;9.534;2022-12-07T04:16:20;10.15;;;5.95;;
63320;SDS011;49449;48.800;9.534;2022-12-07T04:18:48;7.88;;;6.03;;
63320;SDS011;49449;48.800;9.534;2022-12-07T04:21:16;10.63;;;6.55;;
63320;SDS011;49449;48.800;9.534;2022-12-07T04:23:43;8.05;;;6.10;;
63320;SDS011;49449;48.800;9.534;2022-12-07T04:26:11;10.18;;;6.68;;
63320;SDS011;49449;48.800;9.534;2022-12-07T04:28:39;9.52;;;6.80;;
63320;SDS011;49449;48.800;9.534;2022-12-07T04:31:07;7.63;;;6.75;;
63320;SDS011;49449;48.800;9.534;2022-12-07T04:33:36;8.27;;;6.00;;
63320;SDS011;49449;48.800;9.534;2022-12-07T04:36:04;9.02;;;6.40;;
63320;SDS011;49449;48.800;9.534;2022-12-07T04:38:32;9.93;;;6.90;;
63320;SDS011;49449;48.800;9.534;2022-12-07T04:41:03;8.80;;;6.63;;
63320;SDS011;49449;48.800;9.534;2022-12-07T04:45:59;10.82;;;7.10;;
63320;SDS011;49449;48.800;9.534;2022-12-07T04:48:27;8.63;;;6.32;;
63320;SDS011;49449;48.800;9.534;2022-12-07T04:50:56;10.75;;;6.88;;
63320;SDS011;49449;48.800;9.534;2022-12-07T04:53:24;8.27;;;6.32;;
63320;SDS011;49449;48.800;9.534;2022-12-07T04:55:52;9.35;;;6.53;;
63320;SDS011;49449;48.800;9.534;2022-12-07T04:58:19;8.15;;;6.05;;
63320;SDS011;49449;48.800;9.534;2022-12-07T05:00:47;9.38;;;6.20;;
63320;SDS011;49449;48.800;9.534;2022-12-07T05:03:15;10.20;;;6.82;;
63320;SDS011;49449;48.800;9.534;2022-12-07T05:05:42;9.00;;;6.40;;
63320;SDS011;49449;48.800;9.534;2022-12-07T05:08:11;8.25;;;6.38;;
63320;SDS011;49449;48.800;9.534;2022-12-07T05:10:39;9.25;;;6.90;;
63320;SDS011;49449;48.800;9.534;2022-12-07T05:13:07;9.48;;;6.45;;
63320;SDS011;49449;48.800;9.534;2022-12-07T05:15:35;10.00;;;7.10;;
63320;SDS011;49449;48.800;9.534;2022-12-07T05:18:03;12.75;;;6.88;;
63320;SDS011;49449;48.800;9.534;2022-12-07T05:20:30;7.75;;;5.65;;
63320;SDS011;49449;48.800;9.534;2022-12-07T05:23:00;7.63;;;5.75;;
63320;SDS011;49449;48.800;9.534;2022-12-07T05:25:29;8.52;;;5.88;;
63320;SDS011;49449;48.800;9.534;2022-12-07T05:27:57;8.95;;;5.97;;
63320;SDS011;49449;48.800;9.534;2022-12-07T05:30:26;8.55;;;6.22;;
63320;SDS011;49449;48.800;9.534;2022-12-07T05:32:54;9.18;;;5.88;;
63320;SDS011;49449;48.800;9.534;2022-12-07T05:35:21;8.60;;;6.00;;
63320;SDS011;49449;48.800;9.534;2022-12-07T05:37:49;9.93;;;5.95;;
63320;SDS011;49449;48.800;9.534;2022-12-07T05:40:17;8.43;;;6.72;;
63320;SDS011;49449;48.800;9.534;2022-12-07T05:42:47;8.45;;;6.45;;
63320;SDS011;49449;48.800;9.534;2022-12-07T05:45:14;8.45;;;6.25;;
63320;SDS011;49449;48.800;9.534;2022-12-07T05:47:42;9.32;;;6.90;;
63320;SDS011;49449;48.800;9.534;2022-12-07T05:50:10;9.23;;;6.53;;
63320;SDS011;49449;48.800;9.534;2022-12-07T05:52:38;9.80;;;7.28;;
63320;SDS011;49449;48.800;9.534;2022-12-07T05:55:06;9.00;;;6.00;;
63320;SDS011;49449;48.800;9.534;2022-12-07T05:57:34;9.00;;;6.72;;
63320;SDS011;49449;48.800;9.534;2022-12-07T06:00:03;8.90;;;6.10;;
63320;SDS011;49449;48.800;9.534;2022-12-07T06:02:31;13.52;;;8.27;;
63320;SDS011;49449;48.800;9.534;2022-12-07T06:04:59;15.55;;;9.82;;
63320;SDS011;49449;48.800;9.534;2022-12-07T06:07:27;12.38;;;8.43;;
63320;SDS011;49449;48.800;9.534;2022-12-07T06:09:54;12.13;;;7.57;;
63320;SDS011;49449;48.800;9.534;2022-12-07T06:12:22;12.73;;;8.10;;
63320;SDS011;49449;48.800;9.534;2022-12-07T06:15:01;12.38;;;7.63;;
63320;SDS011;49449;48.800;9.534;2022-12-07T06:17:30;9.98;;;6.45;;
63320;SDS011;49449;48.800;9.534;2022-12-07T06:19:57;9.68;;;6.78;;
63320;SDS011;49449;48.800;9.534;2022-12-07T06:22:25;9.23;;;6.80;;
63320;SDS011;49449;48.800;9.534;2022-12-07T06:24:53;9.63;;;7.03;;
63320;SDS011;49449;48.800;9.534;2022-12-07T06:27:21;9.00;;;6.25;;
63320;SDS011;49449;48.800;9.534;2022-12-07T06:29:49;10.02;;;6.57;;
63320;SDS011;49449;48.800;9.534;2022-12-07T06:32:16;8.73;;;7.20;;
63320;SDS011;49449;48.800;9.534;2022-12-07T06:34:46;10.75;;;7.50;;
63320;SDS011;49449;48.800;9.534;2022-12-07T06:37:13;10.15;;;7.85;;
63320;SDS011;49449;48.800;9.534;2022-12-07T06:39:41;8.95;;;6.50;;
63320;SDS011;49449;48.800;9.534;2022-12-07T06:42:09;11.02;;;7.35;;
63320;SDS011;49449;48.800;9.534;2022-12-07T06:44:37;11.82;;;7.45;;
63320;SDS011;49449;48.800;9.534;2022-12-07T06:47:04;11.98;;;7.72;;
63320;SDS011;49449;48.800;9.534;2022-12-07T06:49:55;9.85;;;8.07;;
63320;SDS011;49449;48.800;9.534;2022-12-07T06:52:23;9.02;;;7.25;;
63320;SDS011;49449;48.800;9.534;2022-12-07T06:54:50;7.05;;;5.68;;
63320;SDS011;49449;48.800;9.534;2022-12-07T06:57:18;8.35;;;6.05;;
63320;SDS011;49449;48.800;9.534;2022-12-07T06:59:46;9.05;;;6.38;;
63320;SDS011;49449;48.800;9.534;2022-12-07T07:02:14;11.75;;;7.35;;
63320;SDS011;49449;48.800;9.534;2022-12-07T07:04:41;10.48;;;7.15;;
63320;SDS011;49449;48.800;9.534;2022-12-07T07:07:11;11.88;;;7.15;;
63320;SDS011;49449;48.800;9.534;2022-12-07T07:09:38;8.50;;;6.30;;
63320;SDS011;49449;48.800;9.534;2022-12-07T07:12:06;10.57;;;7.10;;
63320;SDS011;49449;48.800;9.534;2022-12-07T07:14:34;11.20;;;7.97;;
63320;SDS011;49449;48.800;9.534;2022-12-07T07:17:01;10.85;;;8.20;;
63320;SDS011;49449;48.800;9.534;2022-12-07T07:19:29;10.77;;;8.27;;
63320;SDS011;49449;48.800;9.534;2022-12-07T07:21:57;12.35;;;8.45;;
63320;SDS011;49449;48.800;9.534;2022-12-07T07:24:26;11.90;;;8.48;;
63320;SDS011;49449;48.800;9.534;2022-12-07T07:26:54;11.45;;;7.28;;
63320;SDS011;49449;48.800;9.534;2022-12-07T07:29:21;11.25;;;7.07;;
63320;SDS011;49449;48.800;9.534;2022-12-07T07:31:49;10.75;;;7.30;;
63320;SDS011;49449;48.800;9.534;2022-12-07T07:34:17;9.85;;;7.38;;
63320;SDS011;49449;48.800;9.534;2022-12-07T07:36:45;9.98;;;6.95;;
63320;SDS011;49449;48.800;9.534;2022-12-07T07:39:12;10.02;;;6.38;;
63320;SDS011;49449;48.800;9.534;2022-12-07T07:41:42;11.00;;;7.80;;
63320;SDS011;49449;48.800;9.534;2022-12-07T07:44:09;8.43;;;6.20;;
63320;SDS011;49449;48.800;9.534;2022-12-07T07:46:37;9.55;;;6.60;;
63320;SDS011;49449;48.800;9.534;2022-12-07T07:49:05;10.30;;;6.97;;
63320;SDS011;49449;48.800;9.534;2022-12-07T07:51:32;8.43;;;6.57;;
63320;SDS011;49449;48.800;9.534;2022-12-07T07:54:00;10.60;;;8.00;;
63320;SDS011;49449;48.800;9.534;2022-12-07T07:56:28;9.52;;;6.35;;
63320;SDS011;49449;48.800;9.534;2022-12-07T07:58:57;8.68;;;6.07;;
63320;SDS011;49449;48.800;9.534;2022-12-07T08:01:25;10.23;;;6.85;;
63320;SDS011;49449;48.800;9.534;2022-12-07T08:03:52;8.95;;;6.05;;
63320;SDS011;49449;48.800;9.534;2022-12-07T08:06:20;9.82;;;7.18;;
63320;SDS011;49449;48.800;9.534;2022-12-07T08:08:49;10.13;;;7.28;;
63320;SDS011;49449;48.800;9.534;2022-12-07T08:11:16;10.52;;;7.00;;
63320;SDS011;49449;48.800;9.534;2022-12-07T08:13:45;9.65;;;6.38;;
63320;SDS011;49449;48.800;9.534;2022-12-07T08:16:15;9.02;;;6.22;;
63320;SDS011;49449;48.800;9.534;2022-12-07T08:18:43;9.32;;;6.60;;
63320;SDS011;49449;48.800;9.534;2022-12-07T08:21:12;7.22;;;5.95;;
63320;SDS011;49449;48.800;9.534;2022-12-07T08:23:41;7.07;;;4.70;;
63320;SDS011;49449;48.800;9.534;2022-12-07T08:26:09;7.40;;;5.30;;
63320;SDS011;49449;48.800;9.534;2022-12-07T08:28:38;8.15;;;5.57;;
63320;SDS011;49449;48.800;9.534;2022-12-07T08:31:07;7.20;;;4.78;;
63320;SDS011;49449;48.800;9.534;2022-12-07T08:33:39;7.78;;;4.82;;
63320;SDS011;49449;48.800;9.534;2022-12-07T08:36:07;7.47;;;5.40;;
63320;SDS011;49449;48.800;9.534;2022-12-07T08:38:37;7.07;;;4.55;;
63320;SDS011;49449;48.800;9.534;2022-12-07T08:41:06;7.55;;;5.07;;
63320;SDS011;49449;48.800;9.534;2022-12-07T08:43:34;7.35;;;4.45;;
63320;SDS011;49449;48.800;9.534;2022-12-07T08:46:06;6.18;;;4.97;;
63320;SDS011;49449;48.800;9.534;2022-12-07T08:48:39;5.82;;;4.25;;
63320;SDS011;49449;48.800;9.534;2022-12-07T08:51:10;8.13;;;5.68;;
63320;SDS011;49449;48.800;9.534;2022-12-07T08:53:39;7.80;;;5.00;;
63320;SDS011;49449;48.800;9.534;2022-12-07T08:56:07;6.30;;;4.32;;
63320;SDS011;49449;48.800;9.534;2022-12-07T08:58:35;8.05;;;5.47;;
63320;SDS011;49449;48.800;9.534;2022-12-07T09:01:05;9.05;;;5.45;;
63320;SDS011;49449;48.800;9.534;2022-12-07T09:03:33;8.90;;;5.50;;
63320;SDS011;49449;48.800;9.534;2022-12-07T09:06:02;7.88;;;5.53;;
63320;SDS011;49449;48.800;9.534;2022-12-07T09:08:31;8.75;;;5.55;;
63320;SDS011;49449;48.800;9.534;2022-12-07T09:11:02;8.65;;;5.90;;
63320;SDS011;49449;48.800;9.534;2022-12-07T09:13:30;8.40;;;5.93;;
63320;SDS011;49449;48.800;9.534;2022-12-07T09:15:57;8.18;;;6.05;;
63320;SDS011;49449;48.800;9.534;2022-12-07T09:18:25;8.65;;;5.95;;
63320;SDS011;49449;48.800;9.534;2022-12-07T09:20:53;6.30;;;4.63;;
63320;SDS011;49449;48.800;9.534;2022-12-07T09:23:23;6.55;;;4.35;;
63320;SDS011;49449;48.800;9.534;2022-12-07T09:25:51;5.57;;;4.38;;
63320;SDS011;49449;48.800;9.534;2022-12-07T09:28:19;6.03;;;4.40;;
63320;SDS011;49449;48.800;9.534;2022-12-07T09:30:47;7.43;;;4.50;;
63320;SDS011;49449;48.800;9.534;2022-12-07T09:33:35;6.32;;;4.80;;
63320;SDS011;49449;48.800;9.534;2022-12-07T09:36:03;6.13;;;4.40;;
63320;SDS011;49449;48.800;9.534;2022-12-07T09:38:33;6.82;;;4.43;;
63320;SDS011;49449;48.800;9.534;2022-12-07T09:41:03;6.47;;;4.32;;
63320;SDS011;49449;48.800;9.534;2022-12-07T09:43:33;5.65;;;4.10;;
63320;SDS011;49449;48.800;9.534;2022-12-07T09:46:03;5.93;;;4.80;;
63320;SDS011;49449;48.800;9.534;2022-12-07T09:48:32;8.30;;;5.25;;
63320;SDS011;49449;48.800;9.534;2022-12-07T09:51:03;15.18;;;6.60;;
63320;SDS011;49449;48.800;9.534;2022-12-07T09:53:47;10.88;;;5.60;;
63320;SDS011;49449;48.800;9.534;2022-12-07T09:56:17;7.38;;;4.60;;
63320;SDS011;49449;48.800;9.534;2022-12-07T09:58:45;6.30;;;4.50;;
63320;SDS011;49449;48.800;9.534;2022-12-07T10:01:15;6.80;;;4.93;;
63320;SDS011;49449;48.800;9.534;2022-12-07T10:03:45;5.78;;;4.78;;
63320;SDS011;49449;48.800;9.534;2022-12-07T10:06:18;7.72;;;5.07;;
63320;SDS011;49449;48.800;9.534;2022-12-07T10:08:48;8.52;;;5.53;;
63320;SDS011;49449;48.800;9.534;2022-12-07T10:11:16;7.20;;;5.60;;
63320;SDS011;49449;48.800;9.534;2022-12-07T10:13:44;6.70;;;4.82;;
63320;SDS011;49449;48.800;9.534;2022-12-07T10:19:21;5.68;;;4.35;;
63320;SDS011;49449;48.800;9.534;2022-12-07T10:24:39;6.18;;;4.55;;
63320;SDS011;49449;48.800;9.534;2022-12-07T10:27:18;7.57;;;4.63;;
63320;SDS011;49449;48.800;9.534;2022-12-07T10:29:50;6.32;;;4.35;;
63320;SDS011;49449;48.800;9.534;2022-12-07T10:32:30;6.10;;;3.97;;
63320;SDS011;49449;48.800;9.534;2022-12-07T10:35:20;6.00;;;4.10;;
63320;SDS011;49449;48.800;9.534;2022-12-07T10:37:51;5.57;;;4.00;;
63320;SDS011;49449;48.800;9.534;2022-12-07T10:40:31;6.63;;;4.70;;
63320;SDS011;49449;48.800;9.534;2022-12-07T10:43:01;6.20;;;4.35;;
63320;SDS011;49449;48.800;9.534;2022-12-07T10:45:32;6.25;;;4.18;;
63320;SDS011;49449;48.800;9.534;2022-12-07T10:48:02;5.80;;;3.78;;
63320;SDS011;49449;48.800;9.534;2022-12-07T10:50:41;5.30;;;3.90;;
63320;SDS011;49449;48.800;9.534;2022-12-07T10:56:18;5.13;;;3.80;;
63320;SDS011;49449;48.800;9.534;2022-12-07T10:59:02;5.20;;;3.55;;
63320;SDS011;49449;48.800;9.534;2022-12-07T11:01:45;6.57;;;4.63;;
63320;SDS011;49449;48.800;9.534;2022-12-07T11:04:24;4.88;;;3.60;;
63320;SDS011;49449;48.800;9.534;2022-12-07T11:07:02;6.50;;;4.88;;
63320;SDS011;49449;48.800;9.534;2022-12-07T11:12:38;6.22;;;4.15;;
63320;SDS011;49449;48.800;9.534;2022-12-07T11:15:24;4.97;;;3.93;;
63320;SDS011;49449;48.800;9.534;2022-12-07T11:17:58;4.65;;;3.85;;
63320;SDS011;49449;48.800;9.534;2022-12-07T11:20:35;5.22;;;3.67;;
63320;SDS011;49449;48.800;9.534;2022-12-07T11:23:12;5.10;;;3.95;;
63320;SDS011;49449;48.800;9.534;2022-12-07T11:25:49;6.65;;;4.10;;
63320;SDS011;49449;48.800;9.534;2022-12-07T11:28:28;6.40;;;4.05;;
63320;SDS011;49449;48.800;9.534;2022-12-07T11:31:10;4.30;;;3.42;;
63320;SDS011;49449;48.800;9.534;2022-12-07T11:33:45;4.50;;;3.58;;
63320;SDS011;49449;48.800;9.534;2022-12-07T11:36:25;5.43;;;3.83;;
63320;SDS011;49449;48.800;9.534;2022-12-07T11:39:02;5.50;;;4.00;;
63320;SDS011;49449;48.800;9.534;2022-12-07T11:41:38;7.35;;;4.07;;
63320;SDS011;49449;48.800;9.534;2022-12-07T11:44:14;7.07;;;5.00;;
63320;SDS011;49449;48.800;9.534;2022-12-07T11:46:54;6.57;;;4.43;;
63320;SDS011;49449;48.800;9.534;2022-12-07T11:49:27;5.95;;;4.47;;
63320;SDS011;49449;48.800;9.534;2022-12-07T11:52:05;5.50;;;4.10;;
63320;SDS011;49449;48.800;9.534;2022-12-07T11:54:41;6.55;;;4.50;;
63320;SDS011;49449;48.800;9.534;2022-12-07T11:57:12;6.38;;;4.82;;
63320;SDS011;49449;48.800;9.534;2022-12-07T11:59:47;5.85;;;4.25;;
63320;SDS011;49449;48.800;9.534;2022-12-07T12:02:20;7.63;;;4.88;;
63320;SDS011;49449;48.800;9.534;2022-12-07T12:04:53;6.53;;;4.45;;
63320;SDS011;49449;48.800;9.534;2022-12-07T12:07:26;6.93;;;5.05;;
63320;SDS011;49449;48.800;9.534;2022-12-07T12:10:17;9.07;;;5.43;;
63320;SDS011;49449;48.800;9.534;2022-12-07T12:13:02;11.23;;;5.75;;
63320;SDS011;49449;48.800;9.534;2022-12-07T12:16:13;6.68;;;4.28;;
63320;SDS011;49449;48.800;9.534;2022-12-07T12:19:07;6.25;;;3.78;;
63320;SDS011;49449;48.800;9.534;2022-12-07T12:21:47;5.95;;;3.97;;
63320;SDS011;49449;48.800;9.534;2022-12-07T12:24:23;4.40;;;3.60;;
63320;SDS011;49449;48.800;9.534;2022-12-07T12:26:58;4.88;;;3.72;;
63320;SDS011;49449;48.800;9.534;2022-12-07T12:29:31;5.75;;;3.90;;
63320;SDS011;49449;48.800;9.534;2022-12-07T12:32:06;7.10;;;4.60;;
63320;SDS011;49449;48.800;9.534;2022-12-07T12:34:40;4.60;;;3.50;;
63320;SDS011;49449;48.800;9.534;2022-12-07T12:37:43;4.30;;;3.40;;
63320;SDS011;49449;48.800;9.534;2022-12-07T12:49:34;5.00;;;3.08;;
63320;SDS011;49449;48.800;9.534;2022-12-07T12:55:16;4.25;;;3.38;;
63320;SDS011;49449;48.800;9.534;2022-12-07T13:04:17;4.47;;;4.03;;
63320;SDS011;49449;48.800;9.534;2022-12-07T13:07:02;4.82;;;3.53;;
63320;SDS011;49449;48.800;9.534;2022-12-07T13:09:31;4.70;;;3.78;;
63320;SDS011;49449;48.800;9.534;2022-12-07T13:12:03;5.43;;;4.20;;
63320;SDS011;49449;48.800;9.534;2022-12-07T13:14:40;6.97;;;4.45;;
63320;SDS011;49449;48.800;9.534;2022-12-07T13:17:09;5.63;;;4.55;;
63320;SDS011;49449;48.800;9.534;2022-12-07T13:25:29;7.15;;;5.13;;
63320;SDS011;49449;48.800;9.534;2022-12-07T13:28:02;7.32;;;5.25;;
63320;SDS011;49449;48.800;9.534;2022-12-07T13:30:43;6.53;;;4.97;;
63320;SDS011;49449;48.800;9.534;2022-12-07T13:33:18;5.90;;;4.20;;
63320;SDS011;49449;48.800;9.534;2022-12-07T13:35:46;8.35;;;6.00;;
63320;SDS011;49449;48.800;9.534;2022-12-07T13:41:05;8.23;;;4.57;;
63320;SDS011;49449;48.800;9.534;2022-12-07T13:43:43;9.68;;;6.68;;
63320;SDS011;49449;48.800;9.534;2022-12-07T13:46:12;7.40;;;5.15;;
63320;SDS011;49449;48.800;9.534;2022-12-07T13:48:44;7.68;;;5.25;;
63320;SDS011;49449;48.800;9.534;2022-12-07T13:51:17;8.35;;;5.68;;
63320;SDS011;49449;48.800;9.534;2022-12-07T13:53:50;8.70;;;5.35;;
63320;SDS011;49449;48.800;9.534;2022-12-07T13:56:21;7.20;;;5.25;;
63320;SDS011;49449;48.800;9.534;2022-12-07T13:58:53;7.15;;;4.93;;
63320;SDS011;49449;48.800;9.534;2022-12-07T14:01:22;6.35;;;4.75;;
63320;SDS011;49449;48.800;9.534;2022-12-07T14:03:50;6.20;;;4.78;;
63320;SDS011;49449;48.800;9.534;2022-12-07T14:06:19;8.07;;;4.88;;
63320;SDS011;49449;48.800;9.534;2022-12-07T14:09:07;7.28;;;5.50;;
63320;SDS011;49449;48.800;9.534;2022-12-07T14:11:36;6.75;;;5.30;;
63320;SDS011;49449;48.800;9.534;2022-12-07T14:14:04;7.28;;;5.38;;
63320;SDS011;49449;48.800;9.534;2022-12-07T14:16:33;7.88;;;5.18;;
63320;SDS011;49449;48.800;9.534;2022-12-07T14:19:04;7.55;;;5.43;;
63320;SDS011;49449;48.800;9.534;2022-12-07T14:21:33;6.85;;;5.10;;
63320;SDS011;49449;48.800;9.534;2022-12-07T14:24:04;7.57;;;4.75;;
63320;SDS011;49449;48.800;9.534;2022-12-07T14:26:38;7.70;;;5.28;;
63320;SDS011;49449;48.800;9.534;2022-12-07T14:29:20;7.80;;;5.65;;
63320;SDS011;49449;48.800;9.534;2022-12-07T14:31:50;7.60;;;4.68;;
63320;SDS011;49449;48.800;9.534;2022-12-07T14:34:19;6.80;;;5.00;;
63320;SDS011;49449;48.800;9.534;2022-12-07T14:36:47;6.32;;;5.07;;
63320;SDS011;49449;48.800;9.534;2022-12-07T14:39:17;8.00;;;5.35;;
63320;SDS011;49449;48.800;9.534;2022-12-07T14:41:45;6.30;;;4.85;;
63320;SDS011;49449;48.800;9.534;2022-12-07T14:44:19;8.38;;;5.05;;
63320;SDS011;49449;48.800;9.534;2022-12-07T14:46:52;8.02;;;5.22;;
63320;SDS011;49449;48.800;9.534;2022-12-07T14:49:39;7.68;;;5.30;;
63320;SDS011;49449;48.800;9.534;2022-12-07T14:52:09;6.50;;;5.20;;
63320;SDS011;49449;48.800;9.534;2022-12-07T14:55:07;6.78;;;5.07;;
63320;SDS011;49449;48.800;9.534;2022-12-07T14:57:41;6.80;;;4.80;;
63320;SDS011;49449;48.800;9.534;2022-12-07T15:00:13;7.10;;;5.15;;
63320;SDS011;49449;48.800;9.534;2022-12-07T15:02:43;7.53;;;4.78;;
63320;SDS011;49449;48.800;9.534;2022-12-07T15:05:11;8.13;;;5.40;;
63320;SDS011;49449;48.800;9.534;2022-12-07T15:07:41;8.73;;;6.18;;
63320;SDS011;49449;48.800;9.534;2022-12-07T15:10:15;7.97;;;5.30;;
63320;SDS011;49449;48.800;9.534;2022-12-07T15:12:49;8.43;;;5.53;;
63320;SDS011;49449;48.800;9.534;2022-12-07T15:15:17;7.60;;;5.47;;
63320;SDS011;49449;48.800;9.534;2022-12-07T15:17:45;10.30;;;6.28;;
63320;SDS011;49449;48.800;9.534;2022-12-07T15:20:13;9.63;;;6.40;;
63320;SDS011;49449;48.800;9.534;2022-12-07T15:22:42;8.82;;;5.93;;
63320;SDS011;49449;48.800;9.534;2022-12-07T15:25:13;6.80;;;5.50;;
63320;SDS011;49449;48.800;9.534;2022-12-07T15:27:41;6.97;;;5.18;;
63320;SDS011;49449;48.800;9.534;2022-12-07T15:30:09;10.00;;;5.93;;
63320;SDS011;49449;48.800;9.534;2022-12-07T15:32:37;6.47;;;4.88;;
63320;SDS011;49449;48.800;9.534;2022-12-07T15:35:05;8.13;;;5.53;;
63320;SDS011;49449;48.800;9.534;2022-12-07T15:37:33;8.57;;;5.88;;
63320;SDS011;49449;48.800;9.534;2022-12-07T15:40:01;7.05;;;5.65;;
63320;SDS011;49449;48.800;9.534;2022-12-07T15:45:02;8.80;;;6.13;;
63320;SDS011;49449;48.800;9.534;2022-12-07T15:47:30;9.13;;;7.28;;
63320;SDS011;49449;48.800;9.534;2022-12-07T15:49:58;9.48;;;6.63;;
63320;SDS011;49449;48.800;9.534;2022-12-07T15:52:29;9.57;;;6.50;;
63320;SDS011;49449;48.800;9.534;2022-12-07T15:54:57;9.38;;;6.88;;
63320;SDS011;49449;48.800;9.534;2022-12-07T15:57:26;9.00;;;6.53;;
63320;SDS011;49449;48.800;9.534;2022-12-07T15:59:55;10.15;;;7.55;;